createdAt,value
2019-01-11T00:00:43.300Z,99.30
2019-01-11T00:03:11.681Z,99.40
2019-01-11T00:05:40.089Z,99.10
2019-01-11T00:08:08.468Z,98.60
2019-01-11T00:10:36.880Z,98.60
2019-01-11T00:13:05.431Z,98.70
2019-01-11T00:15:34.458Z,98.80
2019-01-11T00:18:03.115Z,98.60
2019-01-11T00:20:31.525Z,99.30
2019-01-11T00:22:59.958Z,98.70
2019-01-11T00:25:28.351Z,98.70
2019-01-11T00:27:56.739Z,98.30
2019-01-11T00:30:25.143Z,98.40
2019-01-11T00:32:54.868Z,97.80
2019-01-11T00:35:23.209Z,98.00
2019-01-11T00:37:51.670Z,98.20
2019-01-11T00:40:20.411Z,97.90
2019-01-11T00:42:50.867Z,97.60
2019-01-11T00:45:19.248Z,97.00
2019-01-11T00:47:47.817Z,97.10
2019-01-11T00:50:16.184Z,97.20
2019-01-11T00:52:44.589Z,97.20
2019-01-11T00:55:13.254Z,97.10
2019-01-11T00:57:43.289Z,97.60
2019-01-11T01:00:17.583Z,97.50
2019-01-11T01:02:45.988Z,96.90
2019-01-11T01:05:14.372Z,97.20
2019-01-11T01:07:42.768Z,96.90
2019-01-11T01:10:11.228Z,97.00
2019-01-11T01:12:39.631Z,96.70
2019-01-11T01:15:10.489Z,96.70
2019-01-11T01:17:39.255Z,96.90
2019-01-11T01:20:13.235Z,97.50
2019-01-11T01:22:41.752Z,97.10
2019-01-11T01:25:10.202Z,97.40
2019-01-11T01:27:38.716Z,97.20
2019-01-11T01:30:13.675Z,97.20
2019-01-11T01:32:42.118Z,96.60
2019-01-11T01:35:10.871Z,96.50
2019-01-11T01:37:39.335Z,96.50
2019-01-11T01:40:10.952Z,97.10
2019-01-11T01:42:39.419Z,97.00
2019-01-11T01:45:11.135Z,97.70
2019-01-11T01:47:39.542Z,96.70
2019-01-11T01:50:09.952Z,97.50
2019-01-11T01:52:38.343Z,97.60
2019-01-11T01:55:09.824Z,97.70
2019-01-11T01:57:38.286Z,97.70
2019-01-11T02:00:10.022Z,97.10
2019-01-11T02:02:39.096Z,97.40
2019-01-11T02:05:09.008Z,97.40
2019-01-11T02:07:40.452Z,97.40
2019-01-11T02:10:11.228Z,97.30
2019-01-11T02:12:39.710Z,96.90
2019-01-11T02:15:09.617Z,97.50
2019-01-11T02:17:38.027Z,97.70
2019-01-11T02:20:09.655Z,97.50
2019-01-11T02:22:38.061Z,97.70
2019-01-11T02:25:07.074Z,97.90
2019-01-11T02:27:35.676Z,98.10
2019-01-11T02:30:06.848Z,97.80
2019-01-11T02:32:35.246Z,97.60
2019-01-11T02:35:04.211Z,97.30
2019-01-11T02:37:32.725Z,97.30
2019-01-11T02:40:01.147Z,97.20
2019-01-11T02:42:29.538Z,97.00
2019-01-11T02:44:57.938Z,97.50
2019-01-11T02:47:26.403Z,96.90
2019-01-11T02:49:55.128Z,97.00
2019-01-11T02:52:23.585Z,97.80
2019-01-11T02:54:52.944Z,97.70
2019-01-11T02:57:21.315Z,97.90
2019-01-11T02:59:49.718Z,97.60
2019-01-11T03:02:18.096Z,97.60
2019-01-11T03:04:46.862Z,97.80
2019-01-11T03:07:15.230Z,97.80
2019-01-11T03:09:43.685Z,98.10
2019-01-11T03:12:12.054Z,97.80
2019-01-11T03:14:40.447Z,97.50
2019-01-11T03:17:08.820Z,97.80
2019-01-11T03:19:37.224Z,97.90
2019-01-11T03:22:05.645Z,97.90
2019-01-11T03:24:34.065Z,97.80
2019-01-11T03:27:02.434Z,97.70
2019-01-11T03:29:30.811Z,97.70
2019-01-11T03:31:59.203Z,97.90
2019-01-11T03:34:27.580Z,98.00
2019-01-11T03:36:55.985Z,98.10
2019-01-11T03:39:24.355Z,98.60
2019-01-11T03:41:54.387Z,98.70
2019-01-11T03:44:22.764Z,99.20
2019-01-11T03:46:51.159Z,99.50
2019-01-11T03:49:19.534Z,99.30
2019-01-11T03:51:47.951Z,99.20
2019-01-11T03:54:16.391Z,99.20
2019-01-11T03:56:44.770Z,99.10
2019-01-11T03:59:13.191Z,99.00
2019-01-11T04:01:41.573Z,99.00
2019-01-11T04:04:10.040Z,98.90
2019-01-11T04:06:38.416Z,99.00
2019-01-11T04:09:09.851Z,99.00
2019-01-11T04:11:38.227Z,99.10
2019-01-11T04:14:06.644Z,98.60
2019-01-11T04:16:35.182Z,98.80
2019-01-11T04:19:05.203Z,99.20
2019-01-11T04:21:33.599Z,99.10
2019-01-11T04:24:02.053Z,99.20
2019-01-11T04:26:30.525Z,99.50
2019-01-11T04:28:58.857Z,99.30
2019-01-11T04:31:27.250Z,99.40
2019-01-11T04:33:55.628Z,99.20
2019-01-11T04:36:24.315Z,98.60
2019-01-11T04:38:52.727Z,98.40
2019-01-11T04:41:21.119Z,98.40
2019-01-11T04:43:49.784Z,98.40
2019-01-11T04:46:18.196Z,98.50
2019-01-11T04:48:48.045Z,98.40
2019-01-11T04:51:16.491Z,98.60
2019-01-11T04:53:44.863Z,98.60
2019-01-11T04:56:13.259Z,98.40
2019-01-11T04:58:41.646Z,97.80
2019-01-11T05:01:10.052Z,98.00
2019-01-11T05:03:38.484Z,98.00
2019-01-11T05:06:06.923Z,98.00
2019-01-11T05:08:35.300Z,98.20
2019-01-11T05:11:04.064Z,98.10
2019-01-11T05:13:39.033Z,98.10
2019-01-11T05:16:07.716Z,97.90
2019-01-11T05:18:37.274Z,97.90
2019-01-11T05:21:05.648Z,98.20
2019-01-11T05:23:34.457Z,98.70
2019-01-11T05:26:02.834Z,98.80
2019-01-11T05:28:31.521Z,99.10
2019-01-11T05:31:00.968Z,98.80
2019-01-11T05:33:29.360Z,98.30
2019-01-11T05:35:57.732Z,98.30
2019-01-11T05:38:26.133Z,98.30
2019-01-11T05:40:54.575Z,98.20
2019-01-11T05:43:23.245Z,97.80
2019-01-11T05:45:51.625Z,98.00
2019-01-11T05:48:20.024Z,97.90
2019-01-11T05:50:48.763Z,97.90
2019-01-11T05:53:17.455Z,97.40
2019-01-11T05:55:46.899Z,97.70
2019-01-11T05:58:22.975Z,97.00
2019-01-11T06:00:51.361Z,96.80
2019-01-11T06:03:19.751Z,96.20
2019-01-11T06:05:48.257Z,96.10
2019-01-11T06:08:20.387Z,95.80
2019-01-11T06:10:48.762Z,95.90
2019-01-11T06:13:17.240Z,95.90
2019-01-11T06:15:45.628Z,96.40
2019-01-11T06:18:14.477Z,95.60
2019-01-11T06:20:42.854Z,95.70
2019-01-11T06:23:11.248Z,95.60
2019-01-11T06:25:39.984Z,95.30
2019-01-11T06:28:09.535Z,95.70
2019-01-11T06:30:38.508Z,95.20
2019-01-11T06:33:06.913Z,95.10
2019-01-11T06:35:35.622Z,95.90
2019-01-11T06:38:04.061Z,95.30
2019-01-11T06:40:32.513Z,95.20
2019-01-11T06:43:03.629Z,95.20
2019-01-11T06:45:32.164Z,95.30
2019-01-11T06:48:00.755Z,95.60
2019-01-11T06:50:29.375Z,95.20
2019-01-11T06:52:57.782Z,95.30
2019-01-11T06:55:27.800Z,95.50
2019-01-11T06:57:56.246Z,95.80
2019-01-11T07:00:24.682Z,95.40
2019-01-11T07:02:54.104Z,95.70
2019-01-11T07:05:22.591Z,95.40
2019-01-11T07:07:52.073Z,95.50
2019-01-11T07:10:23.788Z,95.20
2019-01-11T07:12:52.168Z,95.30
2019-01-11T07:15:20.851Z,94.80
2019-01-11T07:17:49.241Z,95.00
2019-01-11T07:20:17.640Z,95.00
2019-01-11T07:22:46.023Z,95.50
2019-01-11T07:25:15.056Z,95.40
2019-01-11T07:27:45.075Z,94.80
2019-01-11T07:30:15.581Z,95.30
2019-01-11T07:32:44.325Z,95.10
2019-01-11T07:35:13.086Z,95.20
2019-01-11T07:37:41.468Z,95.70
2019-01-11T07:40:11.599Z,96.50
2019-01-11T07:42:41.617Z,95.70
2019-01-11T07:45:14.331Z,96.10
2019-01-11T07:47:42.959Z,96.60
2019-01-11T07:50:11.361Z,96.20
2019-01-11T07:52:41.085Z,97.20
2019-01-11T07:55:09.998Z,97.20
2019-01-11T07:57:38.366Z,97.00
2019-01-11T08:00:09.881Z,97.20
2019-01-11T08:02:38.265Z,96.40
2019-01-11T08:05:07.131Z,96.70
2019-01-11T08:07:35.865Z,95.40
2019-01-11T08:10:07.567Z,95.00
2019-01-11T08:12:36.147Z,93.80
2019-01-11T08:15:07.493Z,94.30
2019-01-11T08:17:35.940Z,93.10
2019-01-11T08:20:05.567Z,92.90
2019-01-11T08:22:35.581Z,93.20
2019-01-11T08:25:04.928Z,92.70
2019-01-11T08:27:33.295Z,92.10
2019-01-11T08:30:01.699Z,92.20
2019-01-11T08:32:30.067Z,92.70
2019-01-11T08:34:58.472Z,91.70
2019-01-11T08:37:27.077Z,92.00
2019-01-11T08:39:55.476Z,92.20
2019-01-11T08:42:23.852Z,91.00
2019-01-11T08:44:52.251Z,90.20
2019-01-11T08:47:20.667Z,90.40
2019-01-11T08:49:49.423Z,89.80
2019-01-11T08:52:17.815Z,89.30
2019-01-11T08:54:46.211Z,88.50
2019-01-11T08:57:14.890Z,87.10
2019-01-11T08:59:43.255Z,87.70
2019-01-11T09:02:12.800Z,87.90
2019-01-11T09:04:41.170Z,87.60
2019-01-11T09:07:09.565Z,87.80
2019-01-11T09:09:37.937Z,86.60
2019-01-11T09:12:06.333Z,88.60
2019-01-11T09:14:39.326Z,87.00
2019-01-11T09:17:07.786Z,87.90
2019-01-11T09:19:36.516Z,87.70
2019-01-11T09:22:04.954Z,86.10
2019-01-11T09:24:33.284Z,85.60
2019-01-11T09:27:02.702Z,85.90
2019-01-11T09:29:31.071Z,86.50
2019-01-11T09:31:59.459Z,85.80
2019-01-11T09:34:27.840Z,85.90
2019-01-11T09:36:56.232Z,84.70
2019-01-11T09:39:24.863Z,85.90
2019-01-11T09:41:53.381Z,85.70
2019-01-11T09:44:21.751Z,86.40
2019-01-11T09:46:50.268Z,87.20
2019-01-11T09:49:18.641Z,86.60
2019-01-11T09:51:47.027Z,85.70
2019-01-11T09:54:15.401Z,86.60
2019-01-11T09:56:43.786Z,85.70
2019-01-11T09:59:12.155Z,85.00
2019-01-11T10:01:40.636Z,83.50
2019-01-11T10:04:10.648Z,83.00
2019-01-11T10:06:40.690Z,83.50
2019-01-11T10:09:09.064Z,85.30
2019-01-11T10:11:37.458Z,87.90
2019-01-11T10:14:05.884Z,85.50
2019-01-11T10:16:34.284Z,89.40
2019-01-11T10:19:02.729Z,89.20
2019-01-11T10:21:31.100Z,88.30
2019-01-11T10:23:59.487Z,87.80
2019-01-11T10:26:27.871Z,87.50
2019-01-11T10:28:56.259Z,87.30
2019-01-11T10:31:24.727Z,87.20
2019-01-11T10:33:53.118Z,86.80
2019-01-11T10:36:21.492Z,85.20
2019-01-11T10:38:49.894Z,83.60
2019-01-11T10:41:18.375Z,83.20
2019-01-11T10:43:47.125Z,85.20
2019-01-11T10:46:19.849Z,84.10
2019-01-11T10:48:48.244Z,84.10
2019-01-11T10:51:19.048Z,82.80
2019-01-11T10:53:49.361Z,82.10
2019-01-11T10:56:17.833Z,84.50
2019-01-11T10:58:46.237Z,84.10
2019-01-11T11:01:14.688Z,84.60
2019-01-11T11:03:43.072Z,85.80
2019-01-11T11:06:11.443Z,86.70
2019-01-11T11:08:39.886Z,87.70
2019-01-11T11:11:09.131Z,88.10
2019-01-11T11:13:37.528Z,89.70
2019-01-11T11:16:05.900Z,90.00
2019-01-11T11:18:34.294Z,90.10
2019-01-11T11:21:02.671Z,89.40
2019-01-11T11:23:31.072Z,90.00
2019-01-11T11:25:59.452Z,90.40
2019-01-11T11:28:27.838Z,90.70
2019-01-11T11:30:56.997Z,91.30
2019-01-11T11:33:25.468Z,91.00
2019-01-11T11:35:53.923Z,90.70
2019-01-11T11:38:22.312Z,90.90
2019-01-11T11:40:50.756Z,91.30
2019-01-11T11:43:19.184Z,91.30
2019-01-11T11:45:47.915Z,91.20
2019-01-11T11:48:16.411Z,90.50
2019-01-11T11:50:44.791Z,91.10
2019-01-11T11:53:13.259Z,91.30
2019-01-11T11:55:41.641Z,90.70
2019-01-11T11:58:11.170Z,91.30
2019-01-11T12:00:39.644Z,90.70
2019-01-11T12:03:08.003Z,90.50
2019-01-11T12:05:38.028Z,90.70
2019-01-11T12:08:06.414Z,91.00
2019-01-11T12:10:34.799Z,90.00
2019-01-11T12:13:03.176Z,90.70
2019-01-11T12:15:31.575Z,90.60
2019-01-11T12:17:59.951Z,91.50
2019-01-11T12:20:28.669Z,91.00
2019-01-11T12:22:57.001Z,90.80
2019-01-11T12:25:25.417Z,90.20
2019-01-11T12:27:53.855Z,91.10
2019-01-11T12:30:22.388Z,90.20
2019-01-11T12:32:50.841Z,88.90
2019-01-11T12:35:21.806Z,89.40
2019-01-11T12:37:50.538Z,90.10
2019-01-11T12:40:20.570Z,90.40
2019-01-11T12:42:48.950Z,90.40
2019-01-11T12:45:17.405Z,89.60
2019-01-11T12:47:45.780Z,89.70
2019-01-11T12:50:22.117Z,88.60
2019-01-11T12:52:52.189Z,88.60
2019-01-11T12:55:20.579Z,88.90
2019-01-11T12:57:49.124Z,88.40
2019-01-11T13:00:18.329Z,87.80
2019-01-11T13:02:46.872Z,89.30
2019-01-11T13:05:18.118Z,88.00
2019-01-11T13:07:46.541Z,90.00
2019-01-11T13:10:17.338Z,89.70
2019-01-11T13:12:45.700Z,90.00
2019-01-11T13:15:16.506Z,88.80
2019-01-11T13:17:44.881Z,90.40
2019-01-11T13:20:15.404Z,90.70
2019-01-11T13:22:44.068Z,90.20
2019-01-11T13:25:12.591Z,90.90
2019-01-11T13:27:40.962Z,91.40
2019-01-11T13:30:12.126Z,91.20
2019-01-11T13:32:40.495Z,91.00
2019-01-11T13:35:08.894Z,91.00
2019-01-11T13:37:37.529Z,91.40
2019-01-11T13:40:09.445Z,91.10
2019-01-11T13:42:37.820Z,90.80
2019-01-11T13:45:07.560Z,90.10
2019-01-11T13:47:37.582Z,91.60
2019-01-11T13:50:15.724Z,90.90
2019-01-11T13:52:44.096Z,90.70
2019-01-11T13:55:12.459Z,89.00
2019-01-11T13:57:40.847Z,90.30
2019-01-11T14:00:14.713Z,89.00
2019-01-11T14:02:43.188Z,91.30
2019-01-11T14:05:11.550Z,89.60
2019-01-11T14:07:39.941Z,90.10
2019-01-11T14:10:08.403Z,90.30
2019-01-11T14:12:36.798Z,91.10
2019-01-11T14:15:07.707Z,91.80
2019-01-11T14:17:36.529Z,92.20
2019-01-11T14:20:07.237Z,93.00
2019-01-11T14:22:35.622Z,93.40
2019-01-11T14:25:06.229Z,93.90
2019-01-11T14:27:34.716Z,94.40
2019-01-11T14:30:04.543Z,94.70
2019-01-11T14:32:32.972Z,94.70
2019-01-11T14:35:01.327Z,94.90
2019-01-11T14:37:32.364Z,95.70
2019-01-11T14:39:59.795Z,95.80
2019-01-11T14:42:28.190Z,95.60
2019-01-11T14:44:56.568Z,96.20
2019-01-11T14:47:25.457Z,96.30
2019-01-11T14:49:53.829Z,96.70
2019-01-11T14:52:22.225Z,96.80
2019-01-11T14:54:50.599Z,97.20
2019-01-11T14:57:18.987Z,97.00
2019-01-11T14:59:47.376Z,97.40
2019-01-11T15:02:15.772Z,97.10
2019-01-11T15:04:44.272Z,97.80
2019-01-11T15:07:13.079Z,98.10
2019-01-11T15:09:41.457Z,98.10
2019-01-11T15:12:09.852Z,97.30
2019-01-11T15:14:38.251Z,97.60
2019-01-11T15:17:06.643Z,97.90
2019-01-11T15:19:36.554Z,98.10
2019-01-11T15:22:05.969Z,97.80
2019-01-11T15:24:34.805Z,97.90
2019-01-11T15:27:03.179Z,98.20
2019-01-11T15:29:32.173Z,98.00
2019-01-11T15:32:20.299Z,98.00
2019-01-11T15:34:48.756Z,98.30
2019-01-11T15:37:17.154Z,98.60
2019-01-11T15:39:45.553Z,98.60
2019-01-11T15:42:13.928Z,98.60
2019-01-11T15:44:42.319Z,99.30
2019-01-11T15:47:10.696Z,99.10
2019-01-11T15:49:39.088Z,99.00
2019-01-11T15:52:07.454Z,99.20
2019-01-11T15:54:36.182Z,99.50
2019-01-11T15:57:04.551Z,99.60
2019-01-11T15:59:35.675Z,99.60
2019-01-11T16:02:04.038Z,99.50
2019-01-11T16:04:32.428Z,99.80
2019-01-11T16:07:03.293Z,99.80
2019-01-11T16:09:56.008Z,99.90
2019-01-11T16:12:27.043Z,99.90
2019-01-11T16:15:03.962Z,99.90
2019-01-11T16:17:32.611Z,99.90
2019-01-11T16:20:00.999Z,99.90
2019-01-11T16:22:29.485Z,99.90
2019-01-11T16:24:58.033Z,99.90
2019-01-11T16:27:29.654Z,99.90
2019-01-11T16:29:58.156Z,99.90
2019-01-11T16:32:28.328Z,99.90
2019-01-11T16:34:56.714Z,99.90
2019-01-11T16:37:25.083Z,99.90
2019-01-11T16:39:53.485Z,99.90
2019-01-11T16:42:21.860Z,99.90
2019-01-11T16:44:53.530Z,99.90
2019-01-11T16:47:21.635Z,99.90
2019-01-11T16:49:50.408Z,99.90
2019-01-11T16:52:18.781Z,99.90
2019-01-11T16:54:47.179Z,99.90
2019-01-11T16:57:15.564Z,99.90
2019-01-11T16:59:43.959Z,99.90
2019-01-11T17:02:13.729Z,99.90
2019-01-11T17:04:42.026Z,99.90
2019-01-11T17:07:10.439Z,99.90
2019-01-11T17:09:38.853Z,99.90
2019-01-11T17:12:07.208Z,99.90
2019-01-11T17:14:35.635Z,99.90
2019-01-11T17:17:04.003Z,99.90
2019-01-11T17:19:32.686Z,99.90
2019-01-11T17:22:01.060Z,99.90
2019-01-11T17:24:29.433Z,99.90
2019-01-11T17:26:57.824Z,99.90
2019-01-11T17:29:26.222Z,99.90
2019-01-11T17:31:54.596Z,99.90
2019-01-11T17:34:22.968Z,99.90
2019-01-11T17:36:51.370Z,99.90
2019-01-11T17:39:19.846Z,99.90
2019-01-11T17:41:48.246Z,99.90
2019-01-11T17:44:16.679Z,99.90
2019-01-11T17:46:45.080Z,99.90
2019-01-11T17:49:13.456Z,99.90
2019-01-11T17:51:41.854Z,99.90
2019-01-11T17:54:10.230Z,99.90
2019-01-11T17:56:38.624Z,99.90
2019-01-11T17:59:07.004Z,99.90
2019-01-11T18:01:35.488Z,99.90
2019-01-11T18:04:03.859Z,99.90
2019-01-11T18:06:32.255Z,99.90
2019-01-11T18:09:00.637Z,99.90
2019-01-11T18:11:29.037Z,99.90
2019-01-11T18:13:57.413Z,99.90
2019-01-11T18:16:25.808Z,99.90
2019-01-11T18:18:54.453Z,99.90
2019-01-11T18:21:22.845Z,99.90
2019-01-11T18:23:51.239Z,99.90
2019-01-11T18:26:19.780Z,99.90
2019-01-11T18:28:48.176Z,99.90
2019-01-11T18:31:17.083Z,99.90
2019-01-11T18:33:45.505Z,99.90
2019-01-11T18:36:14.016Z,99.90
2019-01-11T18:38:42.484Z,99.90
2019-01-11T18:41:10.852Z,99.90
2019-01-11T18:43:39.380Z,99.90
2019-01-11T18:46:07.772Z,99.90
2019-01-11T18:48:36.172Z,99.90
2019-01-11T18:51:04.543Z,99.90
2019-01-11T18:53:32.940Z,99.90
2019-01-11T18:56:05.376Z,99.90
2019-01-11T18:58:31.648Z,99.90
2019-01-11T19:01:00.034Z,99.90
2019-01-11T19:03:28.472Z,99.90
2019-01-11T19:05:56.877Z,99.90
2019-01-11T19:08:25.364Z,99.90
2019-01-11T19:10:53.731Z,99.90
2019-01-11T19:13:22.157Z,99.90
2019-01-11T19:15:50.532Z,99.90
2019-01-11T19:18:18.929Z,99.90
2019-01-11T19:20:47.321Z,99.90
2019-01-11T19:23:20.422Z,99.90
2019-01-11T19:25:45.733Z,99.90
2019-01-11T19:28:14.143Z,99.90
2019-01-11T19:30:42.523Z,99.90
2019-01-11T19:33:10.995Z,99.90
2019-01-11T19:35:39.542Z,99.90
2019-01-11T19:38:07.939Z,99.90
2019-01-11T19:40:36.426Z,99.90
2019-01-11T19:43:04.824Z,99.90
2019-01-11T19:45:33.370Z,99.90
2019-01-11T19:48:01.775Z,99.90
2019-01-11T19:50:30.246Z,99.90
2019-01-11T19:52:58.813Z,99.90
2019-01-11T19:55:27.179Z,99.90
2019-01-11T19:57:55.571Z,99.90
2019-01-11T20:00:26.820Z,99.90
2019-01-11T20:02:55.305Z,99.90
2019-01-11T20:05:24.209Z,99.90
2019-01-11T20:07:52.551Z,99.90
2019-01-11T20:10:23.821Z,99.90
2019-01-11T20:12:52.300Z,99.90
2019-01-11T20:15:20.681Z,99.90
2019-01-11T20:17:49.063Z,99.90
2019-01-11T20:20:17.428Z,99.90
2019-01-11T20:22:45.791Z,99.90
2019-01-11T20:25:19.841Z,99.90
2019-01-11T20:27:48.209Z,99.90
2019-01-11T20:30:19.035Z,99.90
2019-01-11T20:32:47.404Z,99.90
2019-01-11T20:35:16.908Z,99.90
2019-01-11T20:37:46.399Z,99.90
2019-01-11T20:40:15.944Z,99.90
2019-01-11T20:42:44.302Z,99.90
2019-01-11T20:45:14.544Z,99.90
2019-01-11T20:47:43.099Z,99.90
2019-01-11T20:50:16.500Z,99.90
2019-01-11T20:52:44.864Z,99.90
2019-01-11T20:55:13.509Z,99.90
2019-01-11T20:57:41.877Z,99.90
2019-01-11T21:00:16.687Z,99.90
2019-01-11T21:02:45.055Z,99.90
2019-01-11T21:05:13.513Z,99.90
2019-01-11T21:07:41.952Z,99.90
2019-01-11T21:10:11.682Z,99.90
2019-01-11T21:12:40.047Z,99.90
2019-01-11T21:15:11.745Z,99.90
2019-01-11T21:17:40.097Z,99.90
2019-01-11T21:20:11.372Z,99.90
2019-01-11T21:22:39.744Z,99.80
2019-01-11T21:25:11.655Z,99.50
2019-01-11T21:27:40.060Z,99.70
2019-01-11T21:30:20.307Z,99.60
2019-01-11T21:32:48.948Z,99.90
2019-01-11T21:35:17.308Z,99.50
2019-01-11T21:37:45.710Z,99.40
2019-01-11T21:40:18.739Z,99.30
2019-01-11T21:42:47.177Z,99.30
2019-01-11T21:45:16.201Z,99.50
2019-01-11T21:47:46.196Z,99.40
2019-01-11T21:50:17.961Z,99.10
2019-01-11T21:52:46.397Z,99.10
2019-01-11T21:55:14.865Z,99.00
2019-01-11T21:57:43.832Z,98.70
2019-01-11T22:00:21.376Z,98.50
2019-01-11T22:02:50.693Z,98.50
2019-01-11T22:05:19.163Z,99.50
2019-01-11T22:07:47.620Z,99.60
2019-01-11T22:10:17.018Z,99.90
2019-01-11T22:12:45.467Z,99.50
2019-01-11T22:15:17.187Z,99.10
2019-01-11T22:17:45.655Z,99.10
2019-01-11T22:20:17.398Z,98.80
2019-01-11T22:22:45.819Z,99.00
2019-01-11T22:25:16.300Z,98.80
2019-01-11T22:27:44.657Z,98.90
2019-01-11T22:30:18.635Z,99.10
2019-01-11T22:32:47.257Z,99.40
2019-01-11T22:35:15.627Z,99.40
2019-01-11T22:37:44.429Z,99.70
2019-01-11T22:40:17.316Z,99.90
2019-01-11T22:42:45.893Z,99.90
2019-01-11T22:45:15.712Z,99.90
2019-01-11T22:47:44.185Z,99.90
2019-01-11T22:50:14.853Z,99.90
2019-01-11T22:52:43.388Z,99.90
2019-01-11T22:55:14.009Z,99.90
2019-01-11T22:57:42.407Z,99.90
2019-01-11T23:00:40.944Z,99.90
2019-01-11T23:03:21.819Z,99.90
2019-01-11T23:05:53.425Z,99.90
2019-01-11T23:08:22.158Z,99.90
2019-01-11T23:10:56.892Z,99.90
2019-01-11T23:13:25.272Z,99.90
2019-01-11T23:15:54.172Z,99.90
2019-01-11T23:18:22.606Z,99.90
2019-01-11T23:20:50.972Z,99.90
2019-01-11T23:23:19.443Z,99.90
2019-01-11T23:25:47.820Z,99.90
2019-01-11T23:28:16.212Z,99.90
2019-01-11T23:30:44.573Z,99.90
2019-01-11T23:33:12.972Z,99.90
2019-01-11T23:35:41.367Z,99.90
2019-01-11T23:38:10.228Z,99.90
2019-01-11T23:40:38.597Z,99.90
2019-01-11T23:43:07.000Z,99.90
2019-01-11T23:45:35.359Z,99.90
2019-01-11T23:48:03.759Z,99.90
2019-01-11T23:50:32.396Z,99.90
2019-01-11T23:53:00.807Z,99.90
2019-01-11T23:55:29.275Z,99.90
2019-01-11T23:57:57.659Z,99.90
